createdAt,value
2022-10-24T06:50:22.443Z,11.20
2022-10-24T06:50:46.708Z,11.30
2022-10-24T06:51:09.465Z,11.30
2022-10-24T06:51:32.314Z,11.30
2022-10-24T06:51:56.850Z,11.30
2022-10-24T06:52:19.396Z,11.30
2022-10-24T06:52:42.069Z,11.30
2022-10-24T06:53:04.805Z,11.30
2022-10-24T06:53:27.530Z,11.30
2022-10-24T06:53:50.590Z,11.30
2022-10-24T06:54:15.983Z,11.30
2022-10-24T06:54:39.394Z,11.30
2022-10-24T06:55:02.049Z,11.30
2022-10-24T06:55:24.775Z,11.30
2022-10-24T06:55:47.467Z,11.30
2022-10-24T06:56:10.240Z,11.30
2022-10-24T06:56:32.974Z,11.30
2022-10-24T06:56:55.687Z,11.30
2022-10-24T06:57:18.353Z,11.30
2022-10-24T06:57:44.469Z,11.30
2022-10-24T06:58:07.614Z,11.40
2022-10-24T06:58:32.484Z,11.30
2022-10-24T06:58:55.203Z,11.40
2022-10-24T06:59:18.749Z,11.40
2022-10-24T06:59:41.550Z,11.40
2022-10-24T07:00:05.066Z,11.40
2022-10-24T07:00:51.946Z,11.40
2022-10-24T07:01:16.386Z,11.40
2022-10-24T07:01:39.465Z,11.50
2022-10-24T07:02:05.047Z,11.40
2022-10-24T07:02:29.062Z,11.50
2022-10-24T07:02:51.944Z,11.50
2022-10-24T07:03:14.983Z,11.60
2022-10-24T07:03:37.757Z,11.60
2022-10-24T07:04:00.915Z,11.60
2022-10-24T07:04:23.591Z,11.70
2022-10-24T07:04:46.419Z,11.70
2022-10-24T07:05:11.366Z,11.80
2022-10-24T07:05:34.185Z,11.80
2022-10-24T07:05:58.410Z,11.90
2022-10-24T07:06:45.885Z,12.10
2022-10-24T07:07:12.966Z,12.20
2022-10-24T07:07:35.740Z,12.20
2022-10-24T07:07:59.479Z,12.40
2022-10-24T07:08:22.482Z,12.40
2022-10-24T07:08:45.356Z,12.50
2022-10-24T07:09:11.465Z,12.60
2022-10-24T07:09:37.199Z,12.70
2022-10-24T07:09:59.974Z,12.80
2022-10-24T07:10:22.859Z,12.80
2022-10-24T07:10:45.719Z,12.80
2022-10-24T07:11:08.409Z,12.90
2022-10-24T07:11:31.172Z,12.90
2022-10-24T07:11:54.080Z,12.90
2022-10-24T07:12:16.958Z,12.90
2022-10-24T07:12:39.884Z,13.00
2022-10-24T07:13:02.485Z,13.00
2022-10-24T07:13:25.284Z,13.00
2022-10-24T07:13:48.040Z,13.00
2022-10-24T07:14:10.989Z,13.00
2022-10-24T07:14:33.700Z,13.00
2022-10-24T07:14:56.419Z,13.10
2022-10-24T07:15:20.297Z,13.10
2022-10-24T07:15:43.044Z,13.10
2022-10-24T07:16:06.444Z,13.10
2022-10-24T07:16:29.244Z,13.10
2022-10-24T07:16:51.898Z,13.10
2022-10-24T07:17:14.739Z,13.10
2022-10-24T07:17:40.980Z,13.10
2022-10-24T07:18:03.850Z,13.10
2022-10-24T07:18:26.629Z,13.10
2022-10-24T07:18:49.474Z,13.10
2022-10-24T07:19:12.159Z,13.10
2022-10-24T07:19:37.302Z,13.10
2022-10-24T07:20:00.350Z,13.00
2022-10-24T07:20:23.054Z,13.00
2022-10-24T07:20:46.053Z,13.00
2022-10-24T07:21:13.185Z,13.00
2022-10-24T07:21:35.899Z,12.90
2022-10-24T07:21:59.207Z,12.80
2022-10-24T07:22:21.995Z,12.80
2022-10-24T07:22:45.874Z,12.80
2022-10-24T07:23:09.136Z,12.80
2022-10-24T07:23:31.979Z,12.70
2022-10-24T07:23:54.784Z,12.70
2022-10-24T07:24:17.478Z,12.70
2022-10-24T07:24:40.486Z,12.70
2022-10-24T07:25:03.649Z,12.80
2022-10-24T07:25:26.280Z,12.80
2022-10-24T07:25:49.002Z,12.80
2022-10-24T07:26:13.174Z,12.80
2022-10-24T07:26:35.998Z,12.80
2022-10-24T07:26:58.734Z,12.80
2022-10-24T07:27:21.689Z,12.80
2022-10-24T07:27:44.565Z,12.80
2022-10-24T07:28:07.305Z,12.80
2022-10-24T07:28:30.044Z,12.80
2022-10-24T07:28:54.930Z,12.80
2022-10-24T07:29:18.518Z,12.70
2022-10-24T07:29:41.204Z,12.70
2022-10-24T07:30:05.795Z,12.70
2022-10-24T07:30:28.804Z,12.70
2022-10-24T07:30:51.612Z,12.70
2022-10-24T07:31:17.147Z,12.80
2022-10-24T07:31:39.888Z,12.80
2022-10-24T07:32:02.612Z,12.90
2022-10-24T07:32:25.287Z,12.90
2022-10-24T07:32:48.964Z,12.90
2022-10-24T07:33:11.654Z,12.90
2022-10-24T07:33:34.693Z,12.90
2022-10-24T07:33:57.669Z,13.00
2022-10-24T07:34:20.340Z,13.00
2022-10-24T07:34:43.029Z,13.00
2022-10-24T07:35:06.855Z,13.00
2022-10-24T07:35:29.549Z,13.10
2022-10-24T07:35:53.296Z,13.10
2022-10-24T07:36:18.494Z,13.20
2022-10-24T07:36:43.802Z,13.20
2022-10-24T07:37:06.938Z,13.20
2022-10-24T07:37:29.707Z,13.30
2022-10-24T07:37:53.590Z,13.30
2022-10-24T07:38:18.605Z,13.30
2022-10-24T07:38:41.599Z,13.30
2022-10-24T07:39:04.533Z,13.30
2022-10-24T07:39:27.199Z,13.30
2022-10-24T07:39:50.043Z,13.40
2022-10-24T07:40:13.669Z,13.30
2022-10-24T07:40:36.399Z,13.30
2022-10-24T07:40:59.206Z,13.30
2022-10-24T07:41:22.100Z,13.20
2022-10-24T07:41:44.860Z,13.20
2022-10-24T07:42:07.664Z,13.20
2022-10-24T07:42:30.375Z,13.20
2022-10-24T07:42:53.012Z,13.10
2022-10-24T07:43:15.789Z,13.10
2022-10-24T07:43:38.491Z,13.10
2022-10-24T07:44:04.314Z,13.10
2022-10-24T07:44:27.064Z,13.10
2022-10-24T07:44:49.824Z,13.10
2022-10-24T07:45:12.529Z,13.10
2022-10-24T07:45:35.290Z,13.20
2022-10-24T07:45:57.970Z,13.10
2022-10-24T07:46:23.107Z,13.10
2022-10-24T07:46:47.346Z,13.10
2022-10-24T07:47:10.278Z,13.10
2022-10-24T07:47:33.029Z,13.20
2022-10-24T07:47:55.684Z,13.10
2022-10-24T07:48:18.309Z,13.10
2022-10-24T07:48:42.622Z,13.20
2022-10-24T07:49:05.424Z,13.20
2022-10-24T07:49:33.781Z,13.20
2022-10-24T07:49:57.142Z,13.30
2022-10-24T07:50:20.069Z,13.30
2022-10-24T07:50:43.999Z,13.30
2022-10-24T07:51:07.305Z,13.30
2022-10-24T07:51:32.012Z,13.40
2022-10-24T07:51:54.724Z,13.40
2022-10-24T07:52:17.388Z,13.40
2022-10-24T07:52:40.040Z,13.40
2022-10-24T07:53:02.899Z,13.40
2022-10-24T07:53:27.530Z,13.40
2022-10-24T07:53:52.742Z,13.40
2022-10-24T07:54:15.654Z,13.50
2022-10-24T07:54:38.509Z,13.50
2022-10-24T07:55:01.215Z,13.50
2022-10-24T07:55:23.916Z,13.50
2022-10-24T07:55:49.524Z,13.60
2022-10-24T07:56:14.565Z,13.60
2022-10-24T07:56:37.294Z,13.60
2022-10-24T07:56:59.999Z,13.60
2022-10-24T07:57:22.772Z,13.60
2022-10-24T07:57:45.718Z,13.70
2022-10-24T07:58:09.109Z,13.70
2022-10-24T07:58:31.792Z,13.70
2022-10-24T07:58:56.191Z,13.70
2022-10-24T07:59:40.642Z,13.70
2022-10-24T08:00:01.597Z,13.70
2022-10-24T08:00:25.159Z,13.80
2022-10-24T08:00:47.824Z,13.80
2022-10-24T08:01:12.678Z,13.80
2022-10-24T08:01:35.567Z,13.90
2022-10-24T08:01:58.446Z,13.90
2022-10-24T08:02:21.129Z,13.90
2022-10-24T08:02:43.965Z,13.90
2022-10-24T08:03:06.754Z,14.00
2022-10-24T08:03:29.444Z,14.00
2022-10-24T08:03:52.136Z,14.00
2022-10-24T08:04:14.864Z,14.00
2022-10-24T08:04:37.592Z,14.10
2022-10-24T08:05:00.315Z,14.20
2022-10-24T08:05:23.300Z,14.20
2022-10-24T08:05:46.087Z,14.20
2022-10-24T08:06:11.201Z,14.20
2022-10-24T08:06:35.447Z,14.20
2022-10-24T08:06:58.307Z,14.20
2022-10-24T08:07:21.117Z,14.20
2022-10-24T08:07:48.633Z,14.30
2022-10-24T08:08:35.813Z,14.30
2022-10-24T08:09:00.125Z,14.40
2022-10-24T08:09:22.877Z,14.50
2022-10-24T08:09:46.450Z,14.50
2022-10-24T08:10:11.486Z,14.60
2022-10-24T08:10:34.237Z,14.60
2022-10-24T08:10:56.964Z,14.70
2022-10-24T08:11:22.215Z,14.60
2022-10-24T08:11:45.238Z,14.60
2022-10-24T08:12:08.257Z,14.60
2022-10-24T08:12:32.026Z,14.70
2022-10-24T08:12:54.927Z,14.70
2022-10-24T08:13:17.647Z,14.70
2022-10-24T08:13:40.357Z,14.70
2022-10-24T08:14:03.132Z,14.70
2022-10-24T08:14:44.352Z,14.60
2022-10-24T08:15:07.783Z,14.70
2022-10-24T08:15:31.837Z,14.60
2022-10-24T08:15:54.692Z,14.60
2022-10-24T08:16:18.547Z,14.60
2022-10-24T08:16:42.412Z,14.60
2022-10-24T08:17:05.113Z,14.60
2022-10-24T08:17:27.784Z,14.60
2022-10-24T08:17:50.558Z,14.60
2022-10-24T08:18:13.308Z,14.60
2022-10-24T08:18:39.594Z,14.60
2022-10-24T08:19:02.587Z,14.60
2022-10-24T08:19:48.093Z,14.70
2022-10-24T08:20:11.997Z,14.70
2022-10-24T08:20:34.792Z,14.70
2022-10-24T08:20:58.742Z,14.70
2022-10-24T08:21:21.949Z,14.70
2022-10-24T08:21:46.245Z,14.70
2022-10-24T08:22:09.989Z,14.70
2022-10-24T08:22:34.102Z,14.70
2022-10-24T08:22:56.798Z,14.70
2022-10-24T08:23:24.573Z,14.70
2022-10-24T08:23:49.497Z,14.80
2022-10-24T08:24:14.807Z,14.80
2022-10-24T08:24:37.507Z,14.70
2022-10-24T08:25:02.913Z,14.80
2022-10-24T08:25:25.542Z,14.80
2022-10-24T08:25:48.157Z,14.80
2022-10-24T08:26:12.895Z,14.70
2022-10-24T08:26:36.784Z,14.70
2022-10-24T08:26:59.908Z,14.70
2022-10-24T08:27:22.541Z,14.70
2022-10-24T08:27:45.213Z,14.70
2022-10-24T08:28:09.124Z,14.80
2022-10-24T08:28:32.189Z,14.80
2022-10-24T08:28:58.061Z,14.80
2022-10-24T08:29:23.083Z,14.70
2022-10-24T08:29:46.409Z,14.80
2022-10-24T08:30:09.597Z,14.80
2022-10-24T08:30:33.122Z,14.80
2022-10-24T08:30:56.961Z,14.80
2022-10-24T08:31:20.412Z,14.70
2022-10-24T08:31:43.772Z,14.70
2022-10-24T08:32:07.212Z,14.60
2022-10-24T08:32:29.837Z,14.60
2022-10-24T08:32:52.449Z,14.70
2022-10-24T08:33:18.661Z,14.70
2022-10-24T08:33:42.733Z,14.70
2022-10-24T08:34:08.472Z,14.70
2022-10-24T08:34:31.214Z,14.80
2022-10-24T08:34:53.910Z,14.80
2022-10-24T08:35:20.118Z,14.80
2022-10-24T08:35:44.122Z,14.70
2022-10-24T08:36:13.822Z,14.70
2022-10-24T08:36:36.619Z,14.70
2022-10-24T08:37:00.758Z,14.70
2022-10-24T08:37:23.502Z,14.70
2022-10-24T08:37:46.196Z,14.70
2022-10-24T08:38:09.062Z,14.70
2022-10-24T08:38:33.032Z,14.70
2022-10-24T08:38:55.931Z,14.70
2022-10-24T08:39:18.667Z,14.70
2022-10-24T08:39:41.416Z,14.80
2022-10-24T08:40:07.215Z,14.80
2022-10-24T08:40:30.023Z,14.90
2022-10-24T08:40:52.707Z,15.00
2022-10-24T08:41:27.411Z,15.00
2022-10-24T08:41:51.452Z,15.00
2022-10-24T08:42:14.743Z,15.00
2022-10-24T08:42:37.482Z,15.00
2022-10-24T08:43:00.116Z,15.00
2022-10-24T08:43:22.866Z,15.00
2022-10-24T08:43:45.604Z,15.10
2022-10-24T08:44:15.316Z,15.10
2022-10-24T08:44:40.277Z,15.10
2022-10-24T08:45:03.154Z,15.20
2022-10-24T08:45:28.742Z,15.30
2022-10-24T08:45:55.758Z,15.30
2022-10-24T08:46:38.147Z,15.30
2022-10-24T08:47:02.897Z,15.40
2022-10-24T08:47:29.208Z,15.50
2022-10-24T08:47:53.977Z,15.60
2022-10-24T08:48:19.512Z,15.60
2022-10-24T08:48:44.173Z,15.70
2022-10-24T08:49:13.359Z,15.70
2022-10-24T08:49:38.726Z,15.80
2022-10-24T08:50:04.573Z,15.80
2022-10-24T08:50:29.259Z,15.90
2022-10-24T08:50:52.357Z,15.90
2022-10-24T08:51:35.037Z,15.90
2022-10-24T08:52:01.664Z,16.00
2022-10-24T08:52:28.138Z,16.00
2022-10-24T08:52:52.928Z,16.10
2022-10-24T08:53:17.847Z,16.00
2022-10-24T08:53:40.572Z,16.10
2022-10-24T08:54:03.347Z,16.10
2022-10-24T08:54:28.013Z,16.10
2022-10-24T08:54:50.721Z,16.10
2022-10-24T08:55:44.463Z,16.20
2022-10-24T08:55:59.512Z,16.20
2022-10-24T08:56:22.168Z,16.10
2022-10-24T08:56:44.923Z,16.20
2022-10-24T08:57:09.223Z,16.20
2022-10-24T08:57:57.448Z,16.20
2022-10-24T08:58:21.897Z,16.30
2022-10-24T08:58:45.262Z,16.30
2022-10-24T08:59:09.268Z,16.30
2022-10-24T08:59:33.548Z,16.40
2022-10-24T08:59:58.391Z,16.40
2022-10-24T09:00:22.065Z,16.50
2022-10-24T09:00:45.748Z,16.50
2022-10-24T09:01:13.431Z,16.50
2022-10-24T09:01:38.685Z,16.50
2022-10-24T09:02:04.909Z,16.50
2022-10-24T09:02:31.897Z,16.50
2022-10-24T09:02:57.707Z,16.60
2022-10-24T09:03:31.419Z,16.60
2022-10-24T09:04:07.334Z,16.60
2022-10-24T09:04:32.416Z,16.60
2022-10-24T09:04:56.957Z,16.60
2022-10-24T09:05:22.747Z,16.60
2022-10-24T09:05:47.638Z,16.60
2022-10-24T09:06:12.553Z,16.60
2022-10-24T09:06:35.259Z,16.50
2022-10-24T09:06:57.939Z,16.60
2022-10-24T09:07:22.249Z,16.60
2022-10-24T09:07:45.846Z,16.60
2022-10-24T09:08:25.157Z,16.60
2022-10-24T09:08:52.425Z,16.60
2022-10-24T09:09:19.857Z,16.60
2022-10-24T09:09:44.427Z,16.60
2022-10-24T09:10:13.139Z,16.60
2022-10-24T09:10:38.942Z,16.70
2022-10-24T09:11:03.667Z,16.70
2022-10-24T09:11:30.834Z,16.70
2022-10-24T09:11:54.861Z,16.70
2022-10-24T09:12:18.854Z,16.70
2022-10-24T09:12:41.484Z,16.60
2022-10-24T09:13:08.952Z,16.70
2022-10-24T09:13:32.803Z,16.70
2022-10-24T09:13:56.632Z,16.70
2022-10-24T09:14:20.477Z,16.70
2022-10-24T09:14:44.195Z,16.70
2022-10-24T09:15:14.304Z,16.70
2022-10-24T09:15:37.004Z,16.80
2022-10-24T09:15:59.869Z,16.80
2022-10-24T09:16:23.247Z,16.80
2022-10-24T09:16:50.170Z,16.80
2022-10-24T09:17:14.813Z,16.80
2022-10-24T09:17:37.736Z,16.80
2022-10-24T09:18:00.429Z,16.90
2022-10-24T09:18:24.284Z,16.90
2022-10-24T09:18:47.026Z,17.00
2022-10-24T09:19:11.190Z,17.00
2022-10-24T09:19:33.988Z,17.00
2022-10-24T09:19:58.194Z,17.00
2022-10-24T09:20:23.938Z,16.90
2022-10-24T09:20:46.622Z,16.90
2022-10-24T09:21:09.539Z,16.80
2022-10-24T09:21:32.314Z,16.80
2022-10-24T09:21:55.528Z,16.70
2022-10-24T09:22:18.390Z,16.70
2022-10-24T09:22:44.307Z,16.60
2022-10-24T09:23:07.135Z,16.60
2022-10-24T09:23:29.848Z,16.60
2022-10-24T09:23:52.619Z,16.60
2022-10-24T09:24:26.890Z,16.70
2022-10-24T09:24:54.154Z,16.70
2022-10-24T09:25:18.428Z,16.70
2022-10-24T09:25:43.150Z,16.70
2022-10-24T09:26:08.354Z,16.70
2022-10-24T09:26:31.258Z,16.80
2022-10-24T09:26:54.048Z,16.80
2022-10-24T09:27:18.441Z,16.80
2022-10-24T09:27:41.509Z,16.80
2022-10-24T09:28:05.297Z,16.80
2022-10-24T09:28:28.054Z,16.80
2022-10-24T09:28:50.801Z,16.80
2022-10-24T09:29:13.709Z,16.80
2022-10-24T09:29:36.513Z,16.90
2022-10-24T09:29:59.214Z,16.80
2022-10-24T09:30:28.688Z,16.90
2022-10-24T09:30:54.454Z,16.90
2022-10-24T09:31:18.771Z,16.90
2022-10-24T09:31:41.647Z,17.00
2022-10-24T09:32:04.369Z,17.00
2022-10-24T09:32:28.003Z,17.00
2022-10-24T09:32:50.755Z,17.10
2022-10-24T09:33:23.594Z,17.10
2022-10-24T09:33:49.131Z,17.20
2022-10-24T09:34:12.289Z,17.20
2022-10-24T09:34:35.049Z,17.20
2022-10-24T09:34:59.404Z,17.30
2022-10-24T09:35:23.264Z,17.30
2022-10-24T09:35:45.955Z,17.30
2022-10-24T09:36:11.594Z,17.30
2022-10-24T09:36:34.432Z,17.40
2022-10-24T09:36:57.277Z,17.30
2022-10-24T09:37:39.149Z,17.40
2022-10-24T09:38:27.523Z,17.40
2022-10-24T09:38:50.157Z,17.40
2022-10-24T09:39:25.132Z,17.40
2022-10-24T09:39:47.968Z,17.40
2022-10-24T09:40:19.284Z,17.40
2022-10-24T09:40:42.534Z,17.40
2022-10-24T09:41:06.247Z,17.40
2022-10-24T09:41:29.827Z,17.50
2022-10-24T09:41:52.567Z,17.50
2022-10-24T09:42:22.195Z,17.60
2022-10-24T09:42:54.739Z,17.60
2022-10-24T09:43:18.564Z,17.70
2022-10-24T09:43:47.264Z,17.70
2022-10-24T09:44:10.003Z,17.70
2022-10-24T09:44:34.686Z,17.80
2022-10-24T09:44:57.420Z,17.80
2022-10-24T09:45:39.003Z,17.70
2022-10-24T09:46:03.542Z,17.70
2022-10-24T09:46:27.233Z,17.70
2022-10-24T09:46:50.018Z,17.70
2022-10-24T09:47:24.573Z,17.70
2022-10-24T09:47:47.422Z,17.80
2022-10-24T09:48:25.865Z,17.80
2022-10-24T09:48:53.861Z,17.90
2022-10-24T09:49:20.229Z,17.90
2022-10-24T09:49:43.019Z,18.00
2022-10-24T09:50:06.533Z,18.00
2022-10-24T09:50:29.253Z,18.10
2022-10-24T09:50:52.598Z,18.10
2022-10-24T09:51:20.164Z,18.10
2022-10-24T09:51:45.810Z,18.20
2022-10-24T09:52:15.999Z,18.20
2022-10-24T09:52:38.833Z,18.40
2022-10-24T09:53:01.714Z,18.40
2022-10-24T09:53:27.698Z,18.50
2022-10-24T09:54:08.079Z,18.60
2022-10-24T09:54:33.870Z,18.70
2022-10-24T09:55:16.893Z,18.70
2022-10-24T09:55:44.649Z,18.80
2022-10-24T09:56:08.879Z,18.80
2022-10-24T09:56:36.632Z,18.80
2022-10-24T09:57:03.146Z,18.90
2022-10-24T09:57:28.081Z,18.80
2022-10-24T09:57:54.154Z,18.80
2022-10-24T09:58:19.317Z,18.90
2022-10-24T09:58:42.834Z,18.90
2022-10-24T09:59:36.713Z,18.90
2022-10-24T10:00:00.477Z,19.00
2022-10-24T10:00:25.320Z,19.00
2022-10-24T10:00:57.473Z,19.10
2022-10-24T10:01:21.249Z,19.10
2022-10-24T10:01:45.663Z,19.10
2022-10-24T10:02:24.722Z,19.10
2022-10-24T10:03:02.137Z,19.10
2022-10-24T10:03:26.099Z,19.20
2022-10-24T10:04:07.624Z,19.20
2022-10-24T10:04:31.804Z,19.20
2022-10-24T10:05:19.444Z,19.20
2022-10-24T10:05:44.424Z,19.20
2022-10-24T10:06:15.763Z,19.20
2022-10-24T10:06:39.657Z,19.10
2022-10-24T10:07:09.653Z,19.10
2022-10-24T10:07:33.121Z,19.10
2022-10-24T10:07:55.893Z,19.10
2022-10-24T10:08:20.560Z,19.10
2022-10-24T10:08:49.574Z,19.10
2022-10-24T10:09:12.929Z,19.10
2022-10-24T10:09:41.605Z,19.10
2022-10-24T10:10:06.138Z,19.10
2022-10-24T10:10:32.413Z,19.10
2022-10-24T10:11:03.473Z,19.10
2022-10-24T10:11:27.351Z,19.20
2022-10-24T10:12:02.648Z,19.10
2022-10-24T10:12:27.299Z,19.10
2022-10-24T10:12:57.270Z,19.10
2022-10-24T10:13:24.414Z,19.10
2022-10-24T10:13:53.189Z,19.00
2022-10-24T10:14:21.473Z,18.90
2022-10-24T10:14:44.202Z,18.80
2022-10-24T10:15:18.880Z,18.80
2022-10-24T10:15:46.888Z,18.80
2022-10-24T10:16:19.578Z,18.80
2022-10-24T10:16:42.268Z,18.70
2022-10-24T10:17:05.856Z,18.60
2022-10-24T10:17:31.158Z,18.60
2022-10-24T10:17:55.293Z,18.60
2022-10-24T10:18:26.934Z,18.50
2022-10-24T10:18:49.715Z,18.50
2022-10-24T10:19:15.385Z,18.50
2022-10-24T10:19:38.135Z,18.50
2022-10-24T10:20:00.989Z,18.40
2022-10-24T10:20:33.394Z,18.40
2022-10-24T10:21:11.096Z,18.40
2022-10-24T10:21:52.242Z,18.30
2022-10-24T10:22:23.393Z,18.30
2022-10-24T10:22:46.148Z,18.30
2022-10-24T10:23:29.174Z,18.30
2022-10-24T10:23:55.289Z,18.30
2022-10-24T10:24:24.998Z,18.30
2022-10-24T10:24:47.685Z,18.30
2022-10-24T10:25:20.530Z,18.30
2022-10-24T10:25:43.189Z,18.30
2022-10-24T10:26:20.243Z,18.30
2022-10-24T10:26:43.908Z,18.30
2022-10-24T10:27:35.769Z,18.30
2022-10-24T10:28:02.316Z,18.30
2022-10-24T10:28:26.103Z,18.30
2022-10-24T10:28:53.594Z,18.30
2022-10-24T10:29:22.228Z,18.30
2022-10-24T10:29:44.949Z,18.30
2022-10-24T10:30:17.630Z,18.30
2022-10-24T10:30:40.284Z,18.20
2022-10-24T10:31:03.054Z,18.30
2022-10-24T10:31:28.049Z,18.30
2022-10-24T10:31:54.428Z,18.20
2022-10-24T10:32:19.904Z,18.20
2022-10-24T10:32:45.309Z,18.20
2022-10-24T10:33:14.451Z,18.20
2022-10-24T10:33:41.091Z,18.20
2022-10-24T10:34:23.319Z,18.20
2022-10-24T10:34:47.372Z,18.20
2022-10-24T10:35:13.754Z,18.20
2022-10-24T10:35:39.488Z,18.20
2022-10-24T10:36:05.336Z,18.20
2022-10-24T10:36:29.964Z,18.20
2022-10-24T10:37:19.015Z,18.20
2022-10-24T10:37:41.999Z,18.30
2022-10-24T10:38:11.508Z,18.30
2022-10-24T10:38:51.379Z,18.40
2022-10-24T10:39:35.104Z,18.30
2022-10-24T10:40:09.509Z,18.40
2022-10-24T10:40:32.708Z,18.40
2022-10-24T10:40:57.599Z,18.50
2022-10-24T10:41:33.745Z,18.50
2022-10-24T10:41:58.649Z,18.50
2022-10-24T10:42:24.689Z,18.50
2022-10-24T10:42:54.574Z,18.50
2022-10-24T10:43:25.127Z,18.40
2022-10-24T10:43:52.314Z,18.40
2022-10-24T10:44:25.459Z,18.40
2022-10-24T10:44:59.994Z,18.40
2022-10-24T10:45:31.961Z,18.30
2022-10-24T10:45:58.079Z,18.30
2022-10-24T10:46:24.216Z,18.30
2022-10-24T10:46:51.705Z,18.40
2022-10-24T10:47:23.890Z,18.40
2022-10-24T10:47:56.926Z,18.40
2022-10-24T10:48:30.252Z,18.40
2022-10-24T10:48:59.230Z,18.50
2022-10-24T10:49:24.214Z,18.50
2022-10-24T10:49:47.548Z,18.50
2022-10-24T10:50:20.515Z,18.50
2022-10-24T10:50:45.269Z,18.50
2022-10-24T10:51:11.823Z,18.50
2022-10-24T10:51:39.563Z,18.50
2022-10-24T10:52:06.086Z,18.40
2022-10-24T10:52:31.364Z,18.40
2022-10-24T10:52:55.773Z,18.40
2022-10-24T10:53:26.053Z,18.40
2022-10-24T10:53:51.354Z,18.40
2022-10-24T10:54:26.565Z,18.40
2022-10-24T10:55:09.044Z,18.40
2022-10-24T10:55:35.475Z,18.50
2022-10-24T10:56:00.315Z,18.50
2022-10-24T10:56:28.649Z,18.60
2022-10-24T10:56:54.048Z,18.60
2022-10-24T10:57:17.774Z,18.60
2022-10-24T10:57:44.695Z,18.60
2022-10-24T10:58:17.384Z,18.70
2022-10-24T10:58:43.287Z,18.70
2022-10-24T10:59:14.533Z,18.70
2022-10-24T10:59:42.443Z,18.70
2022-10-24T11:00:09.029Z,18.70
2022-10-24T11:00:38.869Z,18.70
2022-10-24T11:01:06.822Z,18.70
2022-10-24T11:01:33.954Z,18.70
2022-10-24T11:02:00.458Z,18.70
2022-10-24T11:02:38.799Z,18.70
2022-10-24T11:03:10.872Z,18.70
2022-10-24T11:03:37.703Z,18.60
2022-10-24T11:04:03.113Z,18.60
2022-10-24T11:04:29.804Z,18.60
2022-10-24T11:04:57.664Z,18.60
2022-10-24T11:05:27.194Z,18.60
2022-10-24T11:05:59.909Z,18.60
2022-10-24T11:06:28.881Z,18.60
2022-10-24T11:06:53.234Z,18.70
2022-10-24T11:07:18.914Z,18.60
2022-10-24T11:07:46.089Z,18.70
2022-10-24T11:08:27.859Z,18.60
2022-10-24T11:09:22.315Z,18.60
2022-10-24T11:09:47.161Z,18.60
2022-10-24T11:10:10.908Z,18.60
2022-10-24T11:10:35.304Z,18.60
2022-10-24T11:10:59.437Z,18.60
2022-10-24T11:11:23.531Z,18.60
2022-10-24T11:11:47.422Z,18.50
2022-10-24T11:12:13.403Z,18.50
2022-10-24T11:12:36.967Z,18.60
2022-10-24T11:12:59.992Z,18.60
2022-10-24T11:13:25.764Z,18.60
2022-10-24T11:13:49.919Z,18.60
2022-10-24T11:14:18.147Z,18.50
2022-10-24T11:14:42.497Z,18.60
2022-10-24T11:15:08.088Z,18.50
2022-10-24T11:15:31.768Z,18.60
2022-10-24T11:15:56.323Z,18.60
2022-10-24T11:16:21.772Z,18.50
2022-10-24T11:16:44.522Z,18.50
2022-10-24T11:17:18.260Z,18.50
2022-10-24T11:17:42.641Z,18.50
2022-10-24T11:18:08.062Z,18.50
2022-10-24T11:18:34.487Z,18.50
2022-10-24T11:19:01.064Z,18.50
2022-10-24T11:19:26.207Z,18.50
2022-10-24T11:19:55.796Z,18.50
2022-10-24T11:20:20.052Z,18.50
2022-10-24T11:20:45.722Z,18.50
2022-10-24T11:21:09.573Z,18.50
2022-10-24T11:21:33.613Z,18.50
2022-10-24T11:21:57.223Z,18.60
2022-10-24T11:22:22.900Z,18.60
2022-10-24T11:22:49.172Z,18.50
2022-10-24T11:23:15.122Z,18.60
2022-10-24T11:23:40.454Z,18.60
2022-10-24T11:24:07.609Z,18.60
2022-10-24T11:24:39.617Z,18.60
2022-10-24T11:25:06.495Z,18.60
2022-10-24T11:25:32.215Z,18.60
2022-10-24T11:25:57.151Z,18.60
2022-10-24T11:26:21.269Z,18.60
2022-10-24T11:26:45.617Z,18.50
2022-10-24T11:27:10.367Z,18.50
2022-10-24T11:27:37.167Z,18.60
2022-10-24T11:28:03.736Z,18.50
2022-10-24T11:28:29.036Z,18.40
2022-10-24T11:28:54.766Z,18.40
2022-10-24T11:29:20.075Z,18.40
2022-10-24T11:29:45.576Z,18.40
2022-10-24T11:30:14.116Z,18.40
2022-10-24T11:30:45.535Z,18.40
2022-10-24T11:31:10.883Z,18.40
2022-10-24T11:31:35.796Z,18.30
2022-10-24T11:31:59.685Z,18.30
2022-10-24T11:32:27.166Z,18.40
2022-10-24T11:32:51.056Z,18.40
2022-10-24T11:33:17.772Z,18.30
2022-10-24T11:33:42.454Z,18.30
2022-10-24T11:34:08.321Z,18.30
2022-10-24T11:34:34.244Z,18.30
2022-10-24T11:34:59.895Z,18.30
2022-10-24T11:35:29.488Z,18.30
2022-10-24T11:36:01.116Z,18.40
2022-10-24T11:36:28.048Z,18.40
2022-10-24T11:36:54.932Z,18.40
2022-10-24T11:37:20.921Z,18.40
2022-10-24T11:37:44.791Z,18.40
2022-10-24T11:38:09.982Z,18.50
2022-10-24T11:38:32.842Z,18.50
2022-10-24T11:38:58.681Z,18.50
2022-10-24T11:39:23.870Z,18.50
2022-10-24T11:39:50.148Z,18.50
2022-10-24T11:40:16.493Z,18.50
2022-10-24T11:40:39.544Z,18.40
2022-10-24T11:41:15.656Z,18.50
2022-10-24T11:41:46.565Z,18.40
2022-10-24T11:42:12.596Z,18.40
2022-10-24T11:42:40.642Z,18.40
2022-10-24T11:43:10.085Z,18.40
2022-10-24T11:43:36.976Z,18.40
2022-10-24T11:44:01.441Z,18.40
2022-10-24T11:44:32.521Z,18.40
2022-10-24T11:44:58.553Z,18.40
2022-10-24T11:45:22.163Z,18.40
2022-10-24T11:45:47.516Z,18.40
2022-10-24T11:46:12.890Z,18.40
2022-10-24T11:46:39.431Z,18.50
2022-10-24T11:47:09.091Z,18.50
2022-10-24T11:47:40.428Z,18.50
2022-10-24T11:48:06.903Z,18.60
2022-10-24T11:48:32.321Z,18.60
2022-10-24T11:48:56.573Z,18.60
2022-10-24T11:49:20.667Z,18.60
2022-10-24T11:49:45.762Z,18.60
2022-10-24T11:50:13.113Z,18.70
2022-10-24T11:50:38.912Z,18.70
2022-10-24T11:51:03.701Z,18.70
2022-10-24T11:51:28.227Z,18.70
2022-10-24T11:51:52.134Z,18.70
2022-10-24T11:52:17.931Z,18.70
2022-10-24T11:52:42.641Z,18.70
2022-10-24T11:53:12.680Z,18.70
2022-10-24T11:53:51.424Z,18.70
2022-10-24T11:54:17.536Z,18.70
2022-10-24T11:54:42.947Z,18.70
2022-10-24T11:55:07.937Z,18.70
2022-10-24T11:55:37.576Z,18.70
2022-10-24T11:56:02.091Z,18.70
2022-10-24T11:56:31.230Z,18.80
2022-10-24T11:56:55.415Z,18.80
2022-10-24T11:57:20.716Z,18.70
2022-10-24T11:57:44.784Z,18.80
2022-10-24T11:58:11.230Z,18.80
2022-10-24T11:58:34.740Z,18.80
2022-10-24T11:58:59.377Z,18.80
2022-10-24T11:59:24.548Z,18.80
2022-10-24T11:59:47.378Z,18.90
2022-10-24T12:00:19.501Z,18.90
2022-10-24T12:01:02.274Z,18.90
2022-10-24T12:01:35.145Z,19.00
2022-10-24T12:02:45.409Z,19.00
2022-10-24T12:03:34.067Z,19.10
2022-10-24T12:04:30.963Z,19.10
2022-10-24T12:05:20.164Z,19.10
2022-10-24T12:06:23.873Z,19.00
2022-10-24T12:07:02.572Z,19.00
2022-10-24T12:08:07.353Z,18.90
2022-10-24T12:08:47.359Z,19.00
2022-10-24T12:09:33.636Z,19.00
2022-10-24T12:10:06.877Z,19.10
2022-10-24T12:10:42.554Z,19.10
2022-10-24T12:11:18.087Z,19.10
2022-10-24T12:11:53.153Z,19.10
2022-10-24T12:12:22.407Z,19.10
2022-10-24T12:13:00.933Z,19.10
2022-10-24T12:13:40.487Z,19.00
2022-10-24T12:14:29.047Z,18.90
2022-10-24T12:15:02.609Z,18.80
2022-10-24T12:15:37.712Z,18.80
2022-10-24T12:16:06.412Z,18.80
2022-10-24T12:16:36.953Z,18.90
2022-10-24T12:17:13.553Z,18.80
2022-10-24T12:17:55.890Z,18.80
2022-10-24T12:18:26.812Z,18.80
2022-10-24T12:18:49.677Z,18.70
2022-10-24T12:19:13.750Z,18.70
2022-10-24T12:19:38.345Z,18.70
2022-10-24T12:20:02.232Z,18.70
2022-10-24T12:20:25.460Z,18.80
2022-10-24T12:20:50.734Z,18.70
2022-10-24T12:21:14.564Z,18.70
2022-10-24T12:21:40.007Z,18.70
2022-10-24T12:22:03.149Z,18.70
2022-10-24T12:22:28.079Z,18.70
2022-10-24T12:22:50.868Z,18.70
2022-10-24T12:23:19.088Z,18.80
2022-10-24T12:23:41.974Z,18.80
2022-10-24T12:24:05.549Z,18.80
2022-10-24T12:24:30.417Z,18.70
2022-10-24T12:25:03.519Z,18.70
2022-10-24T12:25:30.628Z,18.70
2022-10-24T12:26:04.456Z,18.70
2022-10-24T12:26:28.443Z,18.80
2022-10-24T12:26:55.392Z,18.80
2022-10-24T12:27:26.430Z,18.80
2022-10-24T12:27:53.608Z,18.80
2022-10-24T12:28:19.833Z,18.80
2022-10-24T12:28:43.697Z,18.80
2022-10-24T12:29:07.253Z,18.80
2022-10-24T12:29:32.025Z,18.80
2022-10-24T12:30:02.148Z,18.90
2022-10-24T12:30:26.604Z,18.70